sensor_id;sensor_type;location;lat;lon;timestamp;temperature;humidity
318;DHT22;146;53.448;10.228;2022-08-19T00:00:50;21.20;3.50
318;DHT22;146;53.448;10.228;2022-08-19T00:03:18;21.20;3.40
318;DHT22;146;53.448;10.228;2022-08-19T00:05:45;21.20;3.30
318;DHT22;146;53.448;10.228;2022-08-19T00:08:11;21.30;3.20
318;DHT22;146;53.448;10.228;2022-08-19T00:10:38;21.20;2.90
318;DHT22;146;53.448;10.228;2022-08-19T00:13:05;21.20;2.80
318;DHT22;146;53.448;10.228;2022-08-19T00:15:32;21.20;2.60
318;DHT22;146;53.448;10.228;2022-08-19T00:18:00;21.20;2.40
318;DHT22;146;53.448;10.228;2022-08-19T00:20:28;21.20;2.10
318;DHT22;146;53.448;10.228;2022-08-19T00:22:55;21.20;1.80
318;DHT22;146;53.448;10.228;2022-08-19T00:25:22;21.20;1.60
318;DHT22;146;53.448;10.228;2022-08-19T00:27:49;21.20;1.70
318;DHT22;146;53.448;10.228;2022-08-19T00:30:16;21.30;1.50
318;DHT22;146;53.448;10.228;2022-08-19T00:32:43;21.30;1.20
318;DHT22;146;53.448;10.228;2022-08-19T00:35:10;21.20;1.20
318;DHT22;146;53.448;10.228;2022-08-19T00:37:38;21.20;1.60
318;DHT22;146;53.448;10.228;2022-08-19T00:40:11;21.20;1.10
318;DHT22;146;53.448;10.228;2022-08-19T00:42:39;21.20;1.10
318;DHT22;146;53.448;10.228;2022-08-19T00:45:12;21.10;1.50
318;DHT22;146;53.448;10.228;2022-08-19T00:47:39;21.10;1.70
318;DHT22;146;53.448;10.228;2022-08-19T00:50:08;21.00;1.60
318;DHT22;146;53.448;10.228;2022-08-19T00:52:42;21.00;1.60
318;DHT22;146;53.448;10.228;2022-08-19T00:55:13;20.80;1.90
318;DHT22;146;53.448;10.228;2022-08-19T00:57:42;20.90;2.10
318;DHT22;146;53.448;10.228;2022-08-19T01:00:15;20.80;2.50
318;DHT22;146;53.448;10.228;2022-08-19T01:05:10;21.00;1.90
318;DHT22;146;53.448;10.228;2022-08-19T01:07:39;21.10;1.40
318;DHT22;146;53.448;10.228;2022-08-19T01:10:11;21.10;1.30
318;DHT22;146;53.448;10.228;2022-08-19T01:12:39;21.00;1.60
318;DHT22;146;53.448;10.228;2022-08-19T01:15:08;21.10;1.70
318;DHT22;146;53.448;10.228;2022-08-19T01:17:38;21.20;1.50
318;DHT22;146;53.448;10.228;2022-08-19T01:20:10;21.20;1.30
318;DHT22;146;53.448;10.228;2022-08-19T01:22:43;21.20;1.40
318;DHT22;146;53.448;10.228;2022-08-19T01:25:10;21.20;1.80
318;DHT22;146;53.448;10.228;2022-08-19T01:27:38;21.20;1.90
318;DHT22;146;53.448;10.228;2022-08-19T01:30:07;21.20;2.10
318;DHT22;146;53.448;10.228;2022-08-19T01:32:34;21.00;2.10
318;DHT22;146;53.448;10.228;2022-08-19T01:35:02;20.90;2.60
318;DHT22;146;53.448;10.228;2022-08-19T01:37:29;20.80;3.10
318;DHT22;146;53.448;10.228;2022-08-19T01:39:58;20.80;3.70
318;DHT22;146;53.448;10.228;2022-08-19T01:42:24;20.70;4.10
318;DHT22;146;53.448;10.228;2022-08-19T01:44:51;20.80;4.50
318;DHT22;146;53.448;10.228;2022-08-19T01:47:18;20.80;4.30
318;DHT22;146;53.448;10.228;2022-08-19T01:49:45;20.80;4.50
318;DHT22;146;53.448;10.228;2022-08-19T01:52:11;20.70;4.50
318;DHT22;146;53.448;10.228;2022-08-19T01:54:38;20.60;4.70
318;DHT22;146;53.448;10.228;2022-08-19T01:57:09;20.60;4.90
318;DHT22;146;53.448;10.228;2022-08-19T01:59:37;20.50;5.40
318;DHT22;146;53.448;10.228;2022-08-19T02:02:05;20.50;5.50
318;DHT22;146;53.448;10.228;2022-08-19T02:04:32;20.50;6.00
318;DHT22;146;53.448;10.228;2022-08-19T02:06:59;20.60;5.80
318;DHT22;146;53.448;10.228;2022-08-19T02:09:26;20.60;5.50
318;DHT22;146;53.448;10.228;2022-08-19T02:11:53;20.70;5.20
318;DHT22;146;53.448;10.228;2022-08-19T02:14:21;20.70;4.90
318;DHT22;146;53.448;10.228;2022-08-19T02:16:48;20.70;4.70
318;DHT22;146;53.448;10.228;2022-08-19T02:19:14;20.70;5.00
318;DHT22;146;53.448;10.228;2022-08-19T02:21:41;20.70;5.00
318;DHT22;146;53.448;10.228;2022-08-19T02:24:09;20.70;4.90
318;DHT22;146;53.448;10.228;2022-08-19T02:26:36;20.70;4.60
318;DHT22;146;53.448;10.228;2022-08-19T02:29:03;20.60;5.00
318;DHT22;146;53.448;10.228;2022-08-19T02:31:31;20.60;5.00
318;DHT22;146;53.448;10.228;2022-08-19T02:33:58;20.60;5.20
318;DHT22;146;53.448;10.228;2022-08-19T02:36:25;20.50;5.60
318;DHT22;146;53.448;10.228;2022-08-19T02:38:54;20.60;5.30
318;DHT22;146;53.448;10.228;2022-08-19T02:41:22;20.70;5.30
318;DHT22;146;53.448;10.228;2022-08-19T02:43:49;20.70;5.00
318;DHT22;146;53.448;10.228;2022-08-19T02:46:19;20.70;4.80
318;DHT22;146;53.448;10.228;2022-08-19T02:48:48;20.70;4.60
318;DHT22;146;53.448;10.228;2022-08-19T02:51:19;20.70;4.40
318;DHT22;146;53.448;10.228;2022-08-19T02:53:46;20.70;4.60
318;DHT22;146;53.448;10.228;2022-08-19T02:56:13;20.60;4.60
318;DHT22;146;53.448;10.228;2022-08-19T02:58:40;20.50;5.20
318;DHT22;146;53.448;10.228;2022-08-19T03:01:09;20.50;5.60
318;DHT22;146;53.448;10.228;2022-08-19T03:03:36;20.50;5.80
318;DHT22;146;53.448;10.228;2022-08-19T03:06:07;20.50;5.70
318;DHT22;146;53.448;10.228;2022-08-19T03:08:34;20.40;6.10
318;DHT22;146;53.448;10.228;2022-08-19T03:11:01;20.30;6.60
318;DHT22;146;53.448;10.228;2022-08-19T03:13:28;20.30;6.80
318;DHT22;146;53.448;10.228;2022-08-19T03:15:55;20.30;6.60
318;DHT22;146;53.448;10.228;2022-08-19T03:18:22;20.20;7.20
318;DHT22;146;53.448;10.228;2022-08-19T03:20:51;20.10;7.70
318;DHT22;146;53.448;10.228;2022-08-19T03:23:21;20.00;8.10
318;DHT22;146;53.448;10.228;2022-08-19T03:25:50;20.00;8.70
318;DHT22;146;53.448;10.228;2022-08-19T03:28:17;20.00;8.90
318;DHT22;146;53.448;10.228;2022-08-19T03:30:55;20.00;9.00
318;DHT22;146;53.448;10.228;2022-08-19T03:33:23;20.10;9.10
318;DHT22;146;53.448;10.228;2022-08-19T03:36:03;20.10;9.00
318;DHT22;146;53.448;10.228;2022-08-19T03:38:32;20.10;8.90
318;DHT22;146;53.448;10.228;2022-08-19T03:41:03;20.10;8.80
318;DHT22;146;53.448;10.228;2022-08-19T03:43:32;20.20;9.00
318;DHT22;146;53.448;10.228;2022-08-19T03:46:01;20.10;8.60
318;DHT22;146;53.448;10.228;2022-08-19T03:48:30;20.10;8.90
318;DHT22;146;53.448;10.228;2022-08-19T03:50:58;20.10;8.90
318;DHT22;146;53.448;10.228;2022-08-19T03:53:25;20.20;9.10
318;DHT22;146;53.448;10.228;2022-08-19T03:55:55;20.20;8.70
318;DHT22;146;53.448;10.228;2022-08-19T03:58:22;20.20;8.80
318;DHT22;146;53.448;10.228;2022-08-19T04:00:49;20.30;8.70
318;DHT22;146;53.448;10.228;2022-08-19T04:03:16;20.30;8.60
318;DHT22;146;53.448;10.228;2022-08-19T04:05:45;20.30;8.40
318;DHT22;146;53.448;10.228;2022-08-19T04:08:12;20.30;8.60
318;DHT22;146;53.448;10.228;2022-08-19T04:10:40;20.40;8.30
318;DHT22;146;53.448;10.228;2022-08-19T04:13:09;20.40;8.20
318;DHT22;146;53.448;10.228;2022-08-19T04:15:39;20.50;8.30
318;DHT22;146;53.448;10.228;2022-08-19T04:18:07;20.50;8.00
318;DHT22;146;53.448;10.228;2022-08-19T04:20:42;20.50;7.80
318;DHT22;146;53.448;10.228;2022-08-19T04:23:10;20.50;7.70
318;DHT22;146;53.448;10.228;2022-08-19T04:25:38;20.60;7.60
318;DHT22;146;53.448;10.228;2022-08-19T04:28:05;20.60;7.60
318;DHT22;146;53.448;10.228;2022-08-19T04:30:40;20.60;7.40
318;DHT22;146;53.448;10.228;2022-08-19T04:33:08;20.70;7.40
318;DHT22;146;53.448;10.228;2022-08-19T04:35:37;20.70;7.00
318;DHT22;146;53.448;10.228;2022-08-19T04:38:04;20.70;6.70
318;DHT22;146;53.448;10.228;2022-08-19T04:40:31;20.70;6.70
318;DHT22;146;53.448;10.228;2022-08-19T04:43:15;20.60;6.90
318;DHT22;146;53.448;10.228;2022-08-19T04:45:44;20.60;7.10
318;DHT22;146;53.448;10.228;2022-08-19T04:48:12;20.60;6.80
318;DHT22;146;53.448;10.228;2022-08-19T04:50:41;20.50;6.70
318;DHT22;146;53.448;10.228;2022-08-19T04:53:08;20.50;7.20
318;DHT22;146;53.448;10.228;2022-08-19T04:55:38;20.60;7.30
318;DHT22;146;53.448;10.228;2022-08-19T04:58:05;20.60;7.10
318;DHT22;146;53.448;10.228;2022-08-19T05:00:32;20.60;7.00
318;DHT22;146;53.448;10.228;2022-08-19T05:03:00;20.70;7.10
318;DHT22;146;53.448;10.228;2022-08-19T05:05:27;20.60;6.70
318;DHT22;146;53.448;10.228;2022-08-19T05:07:54;20.60;6.90
318;DHT22;146;53.448;10.228;2022-08-19T05:10:21;20.60;6.80
318;DHT22;146;53.448;10.228;2022-08-19T05:12:48;20.60;6.90
318;DHT22;146;53.448;10.228;2022-08-19T05:15:15;20.60;6.80
318;DHT22;146;53.448;10.228;2022-08-19T05:17:42;20.60;7.30
318;DHT22;146;53.448;10.228;2022-08-19T05:20:30;20.60;7.10
318;DHT22;146;53.448;10.228;2022-08-19T05:23:15;20.50;7.30
318;DHT22;146;53.448;10.228;2022-08-19T05:25:42;20.40;8.10
318;DHT22;146;53.448;10.228;2022-08-19T05:28:09;20.40;8.90
318;DHT22;146;53.448;10.228;2022-08-19T05:30:36;20.40;9.20
318;DHT22;146;53.448;10.228;2022-08-19T05:33:03;20.40;9.40
318;DHT22;146;53.448;10.228;2022-08-19T05:35:31;20.50;9.80
318;DHT22;146;53.448;10.228;2022-08-19T05:37:58;20.40;9.30
318;DHT22;146;53.448;10.228;2022-08-19T05:40:24;20.40;9.50
318;DHT22;146;53.448;10.228;2022-08-19T05:42:51;20.40;9.70
318;DHT22;146;53.448;10.228;2022-08-19T05:45:18;20.50;9.70
318;DHT22;146;53.448;10.228;2022-08-19T05:47:47;20.40;9.30
318;DHT22;146;53.448;10.228;2022-08-19T05:50:13;20.50;9.50
318;DHT22;146;53.448;10.228;2022-08-19T05:52:41;20.40;9.30
318;DHT22;146;53.448;10.228;2022-08-19T05:55:08;20.40;9.70
318;DHT22;146;53.448;10.228;2022-08-19T05:57:35;20.40;9.80
318;DHT22;146;53.448;10.228;2022-08-19T06:00:04;20.40;9.90
318;DHT22;146;53.448;10.228;2022-08-19T06:02:35;20.40;10.20
318;DHT22;146;53.448;10.228;2022-08-19T06:05:03;20.30;10.50
318;DHT22;146;53.448;10.228;2022-08-19T06:07:31;20.30;10.80
318;DHT22;146;53.448;10.228;2022-08-19T06:09:59;20.30;11.00
318;DHT22;146;53.448;10.228;2022-08-19T06:12:26;20.40;11.00
318;DHT22;146;53.448;10.228;2022-08-19T06:14:56;20.40;10.70
318;DHT22;146;53.448;10.228;2022-08-19T06:17:23;20.40;10.50
318;DHT22;146;53.448;10.228;2022-08-19T06:19:51;20.30;10.60
318;DHT22;146;53.448;10.228;2022-08-19T06:22:18;20.30;11.00
318;DHT22;146;53.448;10.228;2022-08-19T06:24:44;20.30;10.90
318;DHT22;146;53.448;10.228;2022-08-19T06:27:13;20.40;10.90
318;DHT22;146;53.448;10.228;2022-08-19T06:29:41;20.40;10.80
318;DHT22;146;53.448;10.228;2022-08-19T06:32:08;20.40;10.70
318;DHT22;146;53.448;10.228;2022-08-19T06:34:35;20.50;10.40
318;DHT22;146;53.448;10.228;2022-08-19T06:37:02;20.50;10.10
318;DHT22;146;53.448;10.228;2022-08-19T06:39:37;20.50;9.60
318;DHT22;146;53.448;10.228;2022-08-19T06:42:06;20.50;9.80
318;DHT22;146;53.448;10.228;2022-08-19T06:44:37;20.50;9.40
318;DHT22;146;53.448;10.228;2022-08-19T06:47:10;20.50;9.10
318;DHT22;146;53.448;10.228;2022-08-19T06:49:37;20.50;8.90
318;DHT22;146;53.448;10.228;2022-08-19T06:52:05;20.50;8.80
318;DHT22;146;53.448;10.228;2022-08-19T06:54:32;20.60;8.70
318;DHT22;146;53.448;10.228;2022-08-19T06:57:02;20.50;8.40
318;DHT22;146;53.448;10.228;2022-08-19T06:59:30;20.60;8.40
318;DHT22;146;53.448;10.228;2022-08-19T07:02:02;20.60;8.40
318;DHT22;146;53.448;10.228;2022-08-19T07:04:32;20.50;7.70
318;DHT22;146;53.448;10.228;2022-08-19T07:07:01;20.50;7.80
318;DHT22;146;53.448;10.228;2022-08-19T07:09:28;20.50;8.20
318;DHT22;146;53.448;10.228;2022-08-19T07:11:56;20.50;8.50
318;DHT22;146;53.448;10.228;2022-08-19T07:14:24;20.60;8.50
318;DHT22;146;53.448;10.228;2022-08-19T07:16:53;20.60;8.80
318;DHT22;146;53.448;10.228;2022-08-19T07:19:24;20.70;8.70
318;DHT22;146;53.448;10.228;2022-08-19T07:21:53;20.70;7.60
318;DHT22;146;53.448;10.228;2022-08-19T07:24:22;20.80;7.90
318;DHT22;146;53.448;10.228;2022-08-19T07:26:51;20.80;7.70
318;DHT22;146;53.448;10.228;2022-08-19T07:29:20;20.80;7.10
318;DHT22;146;53.448;10.228;2022-08-19T07:31:48;20.80;6.60
318;DHT22;146;53.448;10.228;2022-08-19T07:34:16;20.90;6.90
318;DHT22;146;53.448;10.228;2022-08-19T07:36:45;20.90;6.50
318;DHT22;146;53.448;10.228;2022-08-19T07:39:14;20.90;6.70
318;DHT22;146;53.448;10.228;2022-08-19T07:41:42;21.00;6.70
318;DHT22;146;53.448;10.228;2022-08-19T07:44:09;21.00;6.20
318;DHT22;146;53.448;10.228;2022-08-19T07:46:38;21.00;5.90
318;DHT22;146;53.448;10.228;2022-08-19T07:49:06;21.00;6.10
318;DHT22;146;53.448;10.228;2022-08-19T07:51:35;21.00;5.90
318;DHT22;146;53.448;10.228;2022-08-19T07:54:03;21.10;6.00
318;DHT22;146;53.448;10.228;2022-08-19T07:56:30;21.00;6.20
318;DHT22;146;53.448;10.228;2022-08-19T07:58:57;20.90;6.60
318;DHT22;146;53.448;10.228;2022-08-19T08:01:26;20.90;7.30
318;DHT22;146;53.448;10.228;2022-08-19T08:03:55;20.90;7.00
318;DHT22;146;53.448;10.228;2022-08-19T08:06:39;20.80;7.20
318;DHT22;146;53.448;10.228;2022-08-19T08:09:29;20.90;7.60
318;DHT22;146;53.448;10.228;2022-08-19T08:12:00;20.80;7.50
318;DHT22;146;53.448;10.228;2022-08-19T08:14:30;20.70;7.70
318;DHT22;146;53.448;10.228;2022-08-19T08:16:58;20.70;7.90
318;DHT22;146;53.448;10.228;2022-08-19T08:19:27;20.60;7.80
318;DHT22;146;53.448;10.228;2022-08-19T08:21:55;20.60;7.90
318;DHT22;146;53.448;10.228;2022-08-19T08:24:22;20.60;8.30
318;DHT22;146;53.448;10.228;2022-08-19T08:26:51;20.60;8.40
318;DHT22;146;53.448;10.228;2022-08-19T08:29:17;20.60;8.30
318;DHT22;146;53.448;10.228;2022-08-19T08:31:45;20.60;8.00
318;DHT22;146;53.448;10.228;2022-08-19T08:34:13;20.50;8.00
318;DHT22;146;53.448;10.228;2022-08-19T08:36:42;20.60;7.90
318;DHT22;146;53.448;10.228;2022-08-19T08:39:11;20.50;8.00
318;DHT22;146;53.448;10.228;2022-08-19T08:41:47;20.50;8.30
318;DHT22;146;53.448;10.228;2022-08-19T08:44:23;20.60;8.10
318;DHT22;146;53.448;10.228;2022-08-19T08:46:56;20.70;8.30
318;DHT22;146;53.448;10.228;2022-08-19T08:49:29;20.70;7.80
318;DHT22;146;53.448;10.228;2022-08-19T08:52:03;20.70;7.40
318;DHT22;146;53.448;10.228;2022-08-19T08:54:34;20.70;7.30
318;DHT22;146;53.448;10.228;2022-08-19T08:57:06;20.70;7.30
318;DHT22;146;53.448;10.228;2022-08-19T08:59:38;20.70;6.50
318;DHT22;146;53.448;10.228;2022-08-19T09:02:07;20.60;5.90
318;DHT22;146;53.448;10.228;2022-08-19T09:04:34;20.60;6.50
318;DHT22;146;53.448;10.228;2022-08-19T09:07:12;20.60;6.30
318;DHT22;146;53.448;10.228;2022-08-19T09:09:46;20.60;6.70
318;DHT22;146;53.448;10.228;2022-08-19T09:12:18;20.60;6.30
318;DHT22;146;53.448;10.228;2022-08-19T09:14:50;20.60;5.80
318;DHT22;146;53.448;10.228;2022-08-19T09:17:19;20.70;6.20
318;DHT22;146;53.448;10.228;2022-08-19T09:19:57;20.70;6.00
318;DHT22;146;53.448;10.228;2022-08-19T09:22:25;20.70;5.40
318;DHT22;146;53.448;10.228;2022-08-19T09:24:53;20.70;5.30
318;DHT22;146;53.448;10.228;2022-08-19T09:27:20;20.70;5.10
318;DHT22;146;53.448;10.228;2022-08-19T09:29:50;20.80;5.50
318;DHT22;146;53.448;10.228;2022-08-19T09:32:17;20.80;5.60
318;DHT22;146;53.448;10.228;2022-08-19T09:34:44;20.90;5.70
318;DHT22;146;53.448;10.228;2022-08-19T09:37:12;20.80;5.80
318;DHT22;146;53.448;10.228;2022-08-19T09:39:39;20.90;6.00
318;DHT22;146;53.448;10.228;2022-08-19T09:42:08;21.00;5.90
318;DHT22;146;53.448;10.228;2022-08-19T09:44:37;21.10;6.10
318;DHT22;146;53.448;10.228;2022-08-19T09:47:06;21.10;5.50
318;DHT22;146;53.448;10.228;2022-08-19T09:49:33;21.00;4.80
318;DHT22;146;53.448;10.228;2022-08-19T09:52:00;21.10;5.10
318;DHT22;146;53.448;10.228;2022-08-19T09:54:27;21.10;5.60
318;DHT22;146;53.448;10.228;2022-08-19T09:56:55;21.10;5.70
318;DHT22;146;53.448;10.228;2022-08-19T09:59:24;21.20;5.30
318;DHT22;146;53.448;10.228;2022-08-19T10:01:50;21.20;5.10
318;DHT22;146;53.448;10.228;2022-08-19T10:04:19;21.20;4.70
318;DHT22;146;53.448;10.228;2022-08-19T10:06:47;21.20;5.30
318;DHT22;146;53.448;10.228;2022-08-19T10:09:16;21.20;5.60
318;DHT22;146;53.448;10.228;2022-08-19T10:11:44;21.20;5.00
318;DHT22;146;53.448;10.228;2022-08-19T10:14:13;21.20;5.10
318;DHT22;146;53.448;10.228;2022-08-19T10:16:40;21.20;4.70
318;DHT22;146;53.448;10.228;2022-08-19T10:19:08;21.20;5.10
318;DHT22;146;53.448;10.228;2022-08-19T10:21:37;21.30;5.20
318;DHT22;146;53.448;10.228;2022-08-19T10:24:05;21.30;5.10
318;DHT22;146;53.448;10.228;2022-08-19T10:26:34;21.30;5.10
318;DHT22;146;53.448;10.228;2022-08-19T10:29:03;21.30;5.20
318;DHT22;146;53.448;10.228;2022-08-19T10:31:32;21.30;5.30
318;DHT22;146;53.448;10.228;2022-08-19T10:34:00;21.30;5.40
318;DHT22;146;53.448;10.228;2022-08-19T10:36:28;21.40;5.40
318;DHT22;146;53.448;10.228;2022-08-19T10:38:59;21.50;5.80
318;DHT22;146;53.448;10.228;2022-08-19T10:41:29;21.50;5.60
318;DHT22;146;53.448;10.228;2022-08-19T10:43:58;21.50;5.00
318;DHT22;146;53.448;10.228;2022-08-19T10:46:26;21.50;4.90
318;DHT22;146;53.448;10.228;2022-08-19T10:48:54;21.50;4.70
318;DHT22;146;53.448;10.228;2022-08-19T10:51:21;21.50;4.40
318;DHT22;146;53.448;10.228;2022-08-19T10:54:06;21.50;4.30
318;DHT22;146;53.448;10.228;2022-08-19T10:56:33;21.50;4.60
318;DHT22;146;53.448;10.228;2022-08-19T10:59:19;21.50;4.50
318;DHT22;146;53.448;10.228;2022-08-19T11:01:47;21.60;3.60
318;DHT22;146;53.448;10.228;2022-08-19T11:04:15;21.70;3.00
318;DHT22;146;53.448;10.228;2022-08-19T11:06:43;21.80;3.00
318;DHT22;146;53.448;10.228;2022-08-19T11:09:14;21.80;3.00
318;DHT22;146;53.448;10.228;2022-08-19T11:11:41;21.80;2.00
318;DHT22;146;53.448;10.228;2022-08-19T11:14:10;21.80;2.70
318;DHT22;146;53.448;10.228;2022-08-19T11:16:38;21.80;2.80
318;DHT22;146;53.448;10.228;2022-08-19T11:19:06;21.90;2.20
318;DHT22;146;53.448;10.228;2022-08-19T11:21:35;21.90;2.10
318;DHT22;146;53.448;10.228;2022-08-19T11:24:05;21.90;2.40
318;DHT22;146;53.448;10.228;2022-08-19T11:26:34;21.90;2.00
318;DHT22;146;53.448;10.228;2022-08-19T11:29:02;21.90;2.60
318;DHT22;146;53.448;10.228;2022-08-19T11:31:32;21.90;2.50
318;DHT22;146;53.448;10.228;2022-08-19T11:34:03;22.00;3.10
318;DHT22;146;53.448;10.228;2022-08-19T11:36:49;21.90;2.60
318;DHT22;146;53.448;10.228;2022-08-19T11:39:33;21.90;2.00
318;DHT22;146;53.448;10.228;2022-08-19T11:48:38;22.00;3.10
318;DHT22;146;53.448;10.228;2022-08-19T11:51:07;22.00;2.30
318;DHT22;146;53.448;10.228;2022-08-19T11:53:35;22.10;2.60
318;DHT22;146;53.448;10.228;2022-08-19T11:56:03;22.10;1.80
318;DHT22;146;53.448;10.228;2022-08-19T11:58:30;22.00;2.10
318;DHT22;146;53.448;10.228;2022-08-19T12:00:57;22.10;2.40
318;DHT22;146;53.448;10.228;2022-08-19T12:03:24;22.10;2.50
318;DHT22;146;53.448;10.228;2022-08-19T12:05:52;22.20;2.30
318;DHT22;146;53.448;10.228;2022-08-19T12:08:19;22.30;2.80
318;DHT22;146;53.448;10.228;2022-08-19T12:10:46;22.30;2.30
318;DHT22;146;53.448;10.228;2022-08-19T12:13:13;22.20;1.80
318;DHT22;146;53.448;10.228;2022-08-19T12:15:46;22.20;2.30
318;DHT22;146;53.448;10.228;2022-08-19T12:18:13;22.20;2.10
318;DHT22;146;53.448;10.228;2022-08-19T12:20:42;22.20;2.40
318;DHT22;146;53.448;10.228;2022-08-19T12:23:12;22.20;1.30
318;DHT22;146;53.448;10.228;2022-08-19T12:25:44;22.30;2.30
318;DHT22;146;53.448;10.228;2022-08-19T12:28:15;22.30;1.70
318;DHT22;146;53.448;10.228;2022-08-19T12:30:42;22.40;1.00
318;DHT22;146;53.448;10.228;2022-08-19T12:33:09;22.40;1.00
318;DHT22;146;53.448;10.228;2022-08-19T12:35:39;22.50;1.00
318;DHT22;146;53.448;10.228;2022-08-19T12:38:06;22.50;1.00
318;DHT22;146;53.448;10.228;2022-08-19T12:40:34;22.50;1.00
318;DHT22;146;53.448;10.228;2022-08-19T12:43:01;22.50;1.00
318;DHT22;146;53.448;10.228;2022-08-19T12:45:28;22.60;1.00
318;DHT22;146;53.448;10.228;2022-08-19T12:47:55;22.50;1.00
318;DHT22;146;53.448;10.228;2022-08-19T12:50:22;22.60;1.00
318;DHT22;146;53.448;10.228;2022-08-19T12:52:48;22.60;1.00
318;DHT22;146;53.448;10.228;2022-08-19T12:55:15;22.70;1.00
318;DHT22;146;53.448;10.228;2022-08-19T12:57:45;22.70;1.00
318;DHT22;146;53.448;10.228;2022-08-19T13:00:16;22.80;1.00
318;DHT22;146;53.448;10.228;2022-08-19T13:02:45;23.10;1.00
318;DHT22;146;53.448;10.228;2022-08-19T13:05:14;23.30;1.00
318;DHT22;146;53.448;10.228;2022-08-19T13:07:43;23.40;1.00
318;DHT22;146;53.448;10.228;2022-08-19T13:10:11;23.60;1.00
318;DHT22;146;53.448;10.228;2022-08-19T13:12:39;23.60;1.00
318;DHT22;146;53.448;10.228;2022-08-19T13:15:09;23.70;1.00
318;DHT22;146;53.448;10.228;2022-08-19T13:17:36;23.80;1.00
318;DHT22;146;53.448;10.228;2022-08-19T13:20:04;23.80;1.00
318;DHT22;146;53.448;10.228;2022-08-19T13:22:33;23.70;1.00
318;DHT22;146;53.448;10.228;2022-08-19T13:25:01;23.80;1.00
318;DHT22;146;53.448;10.228;2022-08-19T13:27:29;23.80;1.00
318;DHT22;146;53.448;10.228;2022-08-19T13:29:55;23.70;1.00
318;DHT22;146;53.448;10.228;2022-08-19T13:32:41;23.70;1.00
318;DHT22;146;53.448;10.228;2022-08-19T13:35:25;23.80;1.00
318;DHT22;146;53.448;10.228;2022-08-19T13:37:52;23.80;1.00
318;DHT22;146;53.448;10.228;2022-08-19T13:40:20;24.00;1.00
318;DHT22;146;53.448;10.228;2022-08-19T13:42:51;24.00;1.00
318;DHT22;146;53.448;10.228;2022-08-19T13:45:20;24.00;1.00
318;DHT22;146;53.448;10.228;2022-08-19T13:47:49;24.10;1.00
318;DHT22;146;53.448;10.228;2022-08-19T13:50:19;24.20;1.00
318;DHT22;146;53.448;10.228;2022-08-19T13:52:46;24.30;1.00
318;DHT22;146;53.448;10.228;2022-08-19T13:55:14;24.50;1.00
318;DHT22;146;53.448;10.228;2022-08-19T13:57:41;24.60;1.00
318;DHT22;146;53.448;10.228;2022-08-19T14:00:12;24.50;1.00
318;DHT22;146;53.448;10.228;2022-08-19T14:02:40;24.60;1.00
318;DHT22;146;53.448;10.228;2022-08-19T14:05:11;24.60;1.00
318;DHT22;146;53.448;10.228;2022-08-19T14:07:38;24.60;1.00
318;DHT22;146;53.448;10.228;2022-08-19T14:10:07;24.60;1.00
318;DHT22;146;53.448;10.228;2022-08-19T14:12:35;24.50;1.00
318;DHT22;146;53.448;10.228;2022-08-19T14:15:03;24.60;1.00
318;DHT22;146;53.448;10.228;2022-08-19T14:17:30;24.60;1.00
318;DHT22;146;53.448;10.228;2022-08-19T14:19:57;24.50;1.00
318;DHT22;146;53.448;10.228;2022-08-19T14:22:33;24.60;1.00
318;DHT22;146;53.448;10.228;2022-08-19T14:25:00;24.50;1.00
318;DHT22;146;53.448;10.228;2022-08-19T14:27:27;24.50;1.00
318;DHT22;146;53.448;10.228;2022-08-19T14:29:54;24.50;1.00
318;DHT22;146;53.448;10.228;2022-08-19T14:32:21;24.50;1.00
318;DHT22;146;53.448;10.228;2022-08-19T14:34:48;24.50;1.00
318;DHT22;146;53.448;10.228;2022-08-19T14:37:14;24.50;1.00
318;DHT22;146;53.448;10.228;2022-08-19T14:39:43;24.50;1.00
318;DHT22;146;53.448;10.228;2022-08-19T14:42:10;24.60;1.00
318;DHT22;146;53.448;10.228;2022-08-19T14:44:40;24.60;1.00
318;DHT22;146;53.448;10.228;2022-08-19T14:47:07;24.70;1.00
318;DHT22;146;53.448;10.228;2022-08-19T14:49:35;24.60;1.00
318;DHT22;146;53.448;10.228;2022-08-19T14:52:02;24.50;1.00
318;DHT22;146;53.448;10.228;2022-08-19T14:54:29;24.30;1.00
318;DHT22;146;53.448;10.228;2022-08-19T14:56:57;24.10;1.00
318;DHT22;146;53.448;10.228;2022-08-19T14:59:24;24.00;1.00
318;DHT22;146;53.448;10.228;2022-08-19T15:01:51;23.80;1.00
318;DHT22;146;53.448;10.228;2022-08-19T15:04:18;23.70;1.00
318;DHT22;146;53.448;10.228;2022-08-19T15:06:44;23.60;1.00
318;DHT22;146;53.448;10.228;2022-08-19T15:09:11;23.50;1.00
318;DHT22;146;53.448;10.228;2022-08-19T15:11:38;23.40;1.00
318;DHT22;146;53.448;10.228;2022-08-19T15:14:06;23.40;1.00
318;DHT22;146;53.448;10.228;2022-08-19T15:16:35;23.30;1.00
318;DHT22;146;53.448;10.228;2022-08-19T15:19:03;23.50;1.00
318;DHT22;146;53.448;10.228;2022-08-19T15:21:30;23.50;1.00
318;DHT22;146;53.448;10.228;2022-08-19T15:23:58;23.40;1.00
318;DHT22;146;53.448;10.228;2022-08-19T15:26:26;23.50;1.00
318;DHT22;146;53.448;10.228;2022-08-19T15:28:56;23.60;1.00
318;DHT22;146;53.448;10.228;2022-08-19T15:31:26;23.60;1.00
318;DHT22;146;53.448;10.228;2022-08-19T15:33:53;23.70;1.00
318;DHT22;146;53.448;10.228;2022-08-19T15:36:23;23.70;1.00
318;DHT22;146;53.448;10.228;2022-08-19T15:38:50;23.60;1.00
318;DHT22;146;53.448;10.228;2022-08-19T15:41:20;23.70;1.00
318;DHT22;146;53.448;10.228;2022-08-19T15:43:51;23.80;1.00
318;DHT22;146;53.448;10.228;2022-08-19T15:46:21;23.90;1.00
318;DHT22;146;53.448;10.228;2022-08-19T15:48:51;24.00;1.00
318;DHT22;146;53.448;10.228;2022-08-19T15:51:18;24.00;1.00
318;DHT22;146;53.448;10.228;2022-08-19T15:53:45;24.10;1.00
318;DHT22;146;53.448;10.228;2022-08-19T15:56:13;24.20;1.00
318;DHT22;146;53.448;10.228;2022-08-19T15:58:41;24.20;1.00
318;DHT22;146;53.448;10.228;2022-08-19T16:01:25;24.10;1.00
318;DHT22;146;53.448;10.228;2022-08-19T16:04:11;24.20;1.00
318;DHT22;146;53.448;10.228;2022-08-19T16:06:57;24.20;1.00
318;DHT22;146;53.448;10.228;2022-08-19T16:09:27;24.20;1.00
318;DHT22;146;53.448;10.228;2022-08-19T16:11:55;24.20;1.00
318;DHT22;146;53.448;10.228;2022-08-19T16:14:23;24.10;1.00
318;DHT22;146;53.448;10.228;2022-08-19T16:16:50;24.10;1.00
318;DHT22;146;53.448;10.228;2022-08-19T16:19:19;24.10;1.00
318;DHT22;146;53.448;10.228;2022-08-19T16:21:47;24.10;1.00
318;DHT22;146;53.448;10.228;2022-08-19T16:24:18;24.10;1.00
318;DHT22;146;53.448;10.228;2022-08-19T16:26:45;24.00;1.00
318;DHT22;146;53.448;10.228;2022-08-19T16:29:13;24.10;1.00
318;DHT22;146;53.448;10.228;2022-08-19T16:31:42;24.00;1.00
318;DHT22;146;53.448;10.228;2022-08-19T16:34:09;24.10;1.00
318;DHT22;146;53.448;10.228;2022-08-19T16:36:37;24.10;1.00
318;DHT22;146;53.448;10.228;2022-08-19T16:39:06;24.00;1.00
318;DHT22;146;53.448;10.228;2022-08-19T16:41:33;24.00;1.00
318;DHT22;146;53.448;10.228;2022-08-19T16:44:02;24.00;1.00
318;DHT22;146;53.448;10.228;2022-08-19T16:46:29;24.00;1.00
318;DHT22;146;53.448;10.228;2022-08-19T16:48:56;23.90;1.00
318;DHT22;146;53.448;10.228;2022-08-19T16:51:23;24.00;1.00
318;DHT22;146;53.448;10.228;2022-08-19T16:53:52;24.00;1.00